createdAt,value
2022-12-04T00:02:11.959Z,63.71
2022-12-04T00:04:38.728Z,64.04
2022-12-04T00:07:05.466Z,63.87
2022-12-04T00:09:32.324Z,64.07
2022-12-04T00:11:58.985Z,64.44
2022-12-04T00:14:25.700Z,65.15
2022-12-04T00:16:52.450Z,65.17
2022-12-04T00:19:19.798Z,64.97
2022-12-04T00:21:46.498Z,65.45
2022-12-04T00:24:13.237Z,65.39
2022-12-04T00:26:39.995Z,65.32
2022-12-04T00:29:06.714Z,65.38
2022-12-04T00:31:33.904Z,65.97
2022-12-04T00:34:02.103Z,65.86
2022-12-04T00:36:29.862Z,66.07
2022-12-04T00:38:59.562Z,66.17
2022-12-04T00:41:28.513Z,66.20
2022-12-04T00:43:55.194Z,66.03
2022-12-04T00:46:22.344Z,66.53
2022-12-04T00:48:49.559Z,66.19
2022-12-04T00:51:22.091Z,67.27
2022-12-04T00:53:49.140Z,66.93
2022-12-04T00:56:19.014Z,67.14
2022-12-04T00:58:46.257Z,67.14
2022-12-04T01:01:18.313Z,67.86
2022-12-04T01:03:45.233Z,68.19
2022-12-04T01:06:26.930Z,68.46
2022-12-04T01:08:55.252Z,68.87
2022-12-04T01:11:24.555Z,69.37
2022-12-04T01:13:51.575Z,69.84
2022-12-04T01:16:23.896Z,69.65
2022-12-04T01:18:51.549Z,69.79
2022-12-04T01:21:18.867Z,69.60
2022-12-04T01:23:46.052Z,70.02
2022-12-04T01:26:13.449Z,69.74
2022-12-04T01:28:41.022Z,69.85
2022-12-04T01:31:11.196Z,69.64
2022-12-04T01:33:38.224Z,69.47
2022-12-04T01:36:08.434Z,69.78
2022-12-04T01:38:37.647Z,69.92
2022-12-04T01:41:05.011Z,70.50
2022-12-04T01:43:34.136Z,70.60
2022-12-04T01:46:01.947Z,70.85
2022-12-04T01:48:32.448Z,70.95
2022-12-04T01:51:07.177Z,70.96
2022-12-04T01:53:38.010Z,71.11
2022-12-04T01:56:05.238Z,71.29
2022-12-04T01:58:37.888Z,70.54
2022-12-04T02:01:08.686Z,71.02
2022-12-04T02:03:37.797Z,70.72
2022-12-04T02:06:05.589Z,71.06
2022-12-04T02:08:33.929Z,71.34
2022-12-04T02:11:18.875Z,71.47
2022-12-04T02:13:51.276Z,70.95
2022-12-04T02:17:04.198Z,70.75
2022-12-04T02:19:39.652Z,70.78
2022-12-04T02:22:17.888Z,70.77
2022-12-04T02:25:10.298Z,70.50
2022-12-04T02:27:39.642Z,70.43
2022-12-04T02:30:13.112Z,70.66
2022-12-04T02:32:42.903Z,70.70
2022-12-04T02:35:15.454Z,71.67
2022-12-04T02:37:54.768Z,72.45
2022-12-04T02:40:25.428Z,73.60
2022-12-04T02:42:58.669Z,73.24
2022-12-04T02:45:30.101Z,74.11
2022-12-04T02:48:00.590Z,76.33
2022-12-04T02:50:30.056Z,76.81
2022-12-04T02:53:10.642Z,77.02
2022-12-04T02:56:00.293Z,76.64
2022-12-04T02:58:33.884Z,76.61
2022-12-04T03:01:02.991Z,76.39
2022-12-04T03:03:33.440Z,75.88
2022-12-04T03:06:05.230Z,75.20
2022-12-04T03:08:39.616Z,76.21
2022-12-04T03:11:06.469Z,76.71
2022-12-04T03:13:36.192Z,77.90
2022-12-04T03:16:12.492Z,77.57
2022-12-04T03:18:51.116Z,78.07
2022-12-04T03:21:21.948Z,77.34
2022-12-04T03:23:59.356Z,77.97
2022-12-04T03:26:31.674Z,77.87
2022-12-04T03:29:11.836Z,77.48
2022-12-04T03:32:08.300Z,77.29
2022-12-04T03:35:05.454Z,77.37
2022-12-04T03:37:43.271Z,77.96
2022-12-04T03:40:43.892Z,78.04
2022-12-04T03:43:20.327Z,77.75
2022-12-04T03:45:59.872Z,77.43
2022-12-04T03:48:33.150Z,77.18
2022-12-04T03:51:19.587Z,77.13
2022-12-04T03:53:54.704Z,76.98
2022-12-04T03:56:32.526Z,76.71
2022-12-04T03:59:05.798Z,77.09
2022-12-04T04:01:39.818Z,77.23
2022-12-04T04:04:12.695Z,76.76
2022-12-04T04:06:47.244Z,77.67
2022-12-04T04:09:19.305Z,77.16
2022-12-04T04:11:48.716Z,76.88
2022-12-04T04:14:51.622Z,77.05
2022-12-04T04:17:42.991Z,77.35
2022-12-04T04:20:34.771Z,76.55
2022-12-04T04:23:37.668Z,76.71
2022-12-04T04:26:05.419Z,76.63
2022-12-04T04:28:38.210Z,76.18
2022-12-04T04:31:42.689Z,76.81
2022-12-04T04:34:36.963Z,76.95
2022-12-04T04:37:12.495Z,76.88
2022-12-04T04:39:39.199Z,76.55
2022-12-04T04:42:26.084Z,76.23
2022-12-04T04:44:55.544Z,75.80
2022-12-04T04:47:31.767Z,75.88
2022-12-04T04:50:01.875Z,75.74
2022-12-04T04:52:29.905Z,75.81
2022-12-04T04:54:57.389Z,75.58
2022-12-04T04:57:37.949Z,75.62
2022-12-04T05:00:11.958Z,76.43
2022-12-04T05:02:38.830Z,77.03
2022-12-04T05:05:05.676Z,77.06
2022-12-04T05:07:32.476Z,76.78
2022-12-04T05:09:59.421Z,76.92
2022-12-04T05:12:26.375Z,76.51
2022-12-04T05:14:53.083Z,77.63
2022-12-04T05:17:19.844Z,76.84
2022-12-04T05:19:56.572Z,76.94
2022-12-04T05:22:27.833Z,76.58
2022-12-04T05:24:54.605Z,76.47
2022-12-04T05:27:22.736Z,76.21
2022-12-04T05:29:51.771Z,76.57
2022-12-04T05:32:18.532Z,76.08
2022-12-04T05:34:48.283Z,75.59
2022-12-04T05:37:14.988Z,75.31
2022-12-04T05:39:41.709Z,75.48
2022-12-04T05:42:08.445Z,75.02
2022-12-04T05:44:35.524Z,75.49
2022-12-04T05:47:02.444Z,75.75
2022-12-04T05:49:30.349Z,75.87
2022-12-04T05:51:57.122Z,75.31
2022-12-04T05:54:24.809Z,75.81
2022-12-04T05:56:51.523Z,75.67
2022-12-04T05:59:18.478Z,76.36
2022-12-04T06:01:45.766Z,76.19
2022-12-04T06:04:12.499Z,76.49
2022-12-04T06:06:39.570Z,75.88
2022-12-04T06:09:07.936Z,75.22
2022-12-04T06:11:38.183Z,75.87
2022-12-04T06:14:07.740Z,75.44
2022-12-04T06:16:40.731Z,75.14
2022-12-04T06:19:11.387Z,74.87
2022-12-04T06:21:40.367Z,75.35
2022-12-04T06:24:08.622Z,75.19
2022-12-04T06:26:35.455Z,75.76
2022-12-04T06:29:02.185Z,75.77
2022-12-04T06:31:30.105Z,75.52
2022-12-04T06:33:58.082Z,75.53
2022-12-04T06:36:25.565Z,75.52
2022-12-04T06:38:55.035Z,76.06
2022-12-04T06:41:23.145Z,76.20
2022-12-04T06:43:51.791Z,76.07
2022-12-04T06:46:21.902Z,76.27
2022-12-04T06:48:49.597Z,75.77
2022-12-04T06:51:26.516Z,75.74
2022-12-04T06:53:53.738Z,75.91
2022-12-04T06:56:23.343Z,75.01
2022-12-04T06:58:53.320Z,74.90
2022-12-04T07:01:23.073Z,75.37
2022-12-04T07:03:51.802Z,75.64
2022-12-04T07:06:22.555Z,75.28
2022-12-04T07:08:52.324Z,75.73
2022-12-04T07:11:20.090Z,75.67
2022-12-04T07:13:47.271Z,75.42
2022-12-04T07:16:15.811Z,75.28
2022-12-04T07:18:42.790Z,75.14
2022-12-04T07:21:12.275Z,75.18
2022-12-04T07:23:39.182Z,75.33
2022-12-04T07:26:07.827Z,75.57
2022-12-04T07:28:36.012Z,75.50
2022-12-04T07:31:07.559Z,75.06
2022-12-04T07:33:34.579Z,75.12
2022-12-04T07:36:03.057Z,75.05
2022-12-04T07:38:31.220Z,74.61
2022-12-04T07:40:58.896Z,74.60
2022-12-04T07:43:27.228Z,73.78
2022-12-04T07:45:53.950Z,73.47
2022-12-04T07:48:20.646Z,73.32
2022-12-04T07:50:47.477Z,73.26
2022-12-04T07:53:14.444Z,73.29
2022-12-04T07:55:41.489Z,72.85
2022-12-04T07:58:08.199Z,72.87
2022-12-04T08:00:34.885Z,72.75
2022-12-04T08:03:01.636Z,72.99
2022-12-04T08:05:28.356Z,73.12
2022-12-04T08:07:55.180Z,77.77
2022-12-04T08:10:21.877Z,76.67
2022-12-04T08:12:48.599Z,72.77
2022-12-04T08:15:15.380Z,73.28
2022-12-04T08:17:42.109Z,71.34
2022-12-04T08:20:09.052Z,69.65
2022-12-04T08:22:35.739Z,69.87
2022-12-04T08:25:02.541Z,70.28
2022-12-04T08:27:29.222Z,70.92
2022-12-04T08:29:56.062Z,70.66
2022-12-04T08:32:23.096Z,69.63
2022-12-04T08:34:55.677Z,69.91
2022-12-04T08:37:22.970Z,70.61
2022-12-04T08:39:49.707Z,70.25
2022-12-04T08:42:16.425Z,68.59
2022-12-04T08:44:43.089Z,68.64
2022-12-04T08:47:09.777Z,68.54
2022-12-04T08:49:36.429Z,69.93
2022-12-04T08:52:03.214Z,69.95
2022-12-04T08:54:35.818Z,69.29
2022-12-04T08:57:03.722Z,69.39
2022-12-04T08:59:30.591Z,69.37
2022-12-04T09:01:57.405Z,69.03
2022-12-04T09:04:24.134Z,69.55
2022-12-04T09:06:51.001Z,69.41
2022-12-04T09:09:17.807Z,69.00
2022-12-04T09:11:47.647Z,69.11
2022-12-04T09:14:14.339Z,69.52
2022-12-04T09:16:41.067Z,69.52
2022-12-04T09:19:07.796Z,69.62
2022-12-04T09:21:34.537Z,69.73
2022-12-04T09:24:01.302Z,69.40
2022-12-04T09:26:32.723Z,69.49
2022-12-04T09:29:01.355Z,69.51
2022-12-04T09:31:28.389Z,69.01
2022-12-04T09:33:55.864Z,69.13
2022-12-04T09:36:22.617Z,68.58
2022-12-04T09:38:51.937Z,68.76
2022-12-04T09:41:37.650Z,69.35
2022-12-04T09:44:26.198Z,68.09
2022-12-04T09:46:54.295Z,68.59
2022-12-04T09:49:26.755Z,68.96
2022-12-04T09:51:57.114Z,69.96
2022-12-04T09:54:28.327Z,70.68
2022-12-04T09:57:02.175Z,70.03
2022-12-04T09:59:32.504Z,70.10
2022-12-04T10:02:03.473Z,69.14
2022-12-04T10:04:31.009Z,68.25
2022-12-04T10:07:16.383Z,67.91
2022-12-04T10:09:59.154Z,67.45
2022-12-04T10:12:25.886Z,67.43
2022-12-04T10:14:52.458Z,67.73
2022-12-04T10:17:39.461Z,67.87
2022-12-04T10:20:27.907Z,67.50
2022-12-04T10:23:13.532Z,67.66
2022-12-04T10:25:42.309Z,67.48
2022-12-04T10:28:18.268Z,67.27
2022-12-04T10:30:46.068Z,67.26
2022-12-04T10:33:15.755Z,67.08
2022-12-04T10:35:44.775Z,67.18
2022-12-04T10:38:32.363Z,68.06
2022-12-04T10:41:15.182Z,67.63
2022-12-04T10:43:47.441Z,67.91
2022-12-04T10:46:18.808Z,67.57
2022-12-04T10:48:47.956Z,68.00
2022-12-04T10:51:21.389Z,68.14
2022-12-04T10:53:49.781Z,68.48
2022-12-04T10:56:23.401Z,68.07
2022-12-04T10:58:57.383Z,68.27
2022-12-04T11:01:24.650Z,67.71
2022-12-04T11:04:16.817Z,68.29
2022-12-04T11:06:43.572Z,67.84
2022-12-04T11:09:22.551Z,67.77
2022-12-04T11:11:50.331Z,67.94
2022-12-04T11:14:22.373Z,67.74
2022-12-04T11:16:50.192Z,67.95
2022-12-04T11:19:31.053Z,67.74
2022-12-04T11:22:05.291Z,67.83
2022-12-04T11:24:37.626Z,67.94
2022-12-04T11:27:05.893Z,67.14
2022-12-04T11:29:41.569Z,66.94
2022-12-04T11:32:25.708Z,66.98
2022-12-04T11:34:56.259Z,67.31
2022-12-04T11:37:27.738Z,67.08
2022-12-04T11:39:55.573Z,67.41
2022-12-04T11:42:31.064Z,68.22
2022-12-04T11:45:00.116Z,68.02
2022-12-04T11:47:29.747Z,68.38
2022-12-04T11:50:14.918Z,68.34
2022-12-04T11:53:02.705Z,68.11
2022-12-04T11:55:41.810Z,67.89
2022-12-04T11:58:26.260Z,67.70
2022-12-04T12:01:09.520Z,66.95
2022-12-04T12:04:02.890Z,66.67
2022-12-04T12:06:29.597Z,66.20
2022-12-04T12:09:03.142Z,66.09
2022-12-04T12:11:37.623Z,65.85
2022-12-04T12:14:26.430Z,65.80
2022-12-04T12:17:27.141Z,65.76
2022-12-04T12:20:04.582Z,65.80
2022-12-04T12:22:55.964Z,65.74
2022-12-04T12:25:36.448Z,65.96
2022-12-04T12:28:38.225Z,65.67
2022-12-04T12:31:10.695Z,65.48
2022-12-04T12:33:44.936Z,65.26
2022-12-04T12:36:14.104Z,65.16
2022-12-04T12:39:02.425Z,63.80
2022-12-04T12:41:47.587Z,63.61
2022-12-04T12:44:26.946Z,62.72
2022-12-04T12:47:00.565Z,62.17
2022-12-04T12:49:35.151Z,61.91
2022-12-04T12:52:25.027Z,61.57
2022-12-04T12:54:58.951Z,60.84
2022-12-04T12:57:39.744Z,59.24
2022-12-04T13:00:13.912Z,59.92
2022-12-04T13:02:52.055Z,59.23
2022-12-04T13:05:35.150Z,58.97
2022-12-04T13:08:21.551Z,57.96
2022-12-04T13:10:53.384Z,56.40
2022-12-04T13:13:34.493Z,55.01
2022-12-04T13:16:11.121Z,53.99
2022-12-04T13:18:47.696Z,53.66
2022-12-04T13:21:37.452Z,52.84
2022-12-04T13:24:32.525Z,53.50
2022-12-04T13:27:12.530Z,53.62
2022-12-04T13:30:00.886Z,52.83
2022-12-04T13:32:48.882Z,52.35
2022-12-04T13:35:52.731Z,52.38
2022-12-04T13:38:40.529Z,52.27
2022-12-04T13:41:10.942Z,53.06
2022-12-04T13:43:44.115Z,53.18
2022-12-04T13:46:36.891Z,54.44
2022-12-04T13:49:13.630Z,53.42
2022-12-04T13:51:41.791Z,53.60
2022-12-04T13:54:11.412Z,53.97
2022-12-04T13:56:43.564Z,54.30
2022-12-04T13:59:28.696Z,54.51
2022-12-04T14:02:02.249Z,54.32
2022-12-04T14:04:33.777Z,54.37
2022-12-04T14:07:03.921Z,54.64
2022-12-04T14:09:53.200Z,54.89
2022-12-04T14:12:27.233Z,55.01
2022-12-04T14:15:00.647Z,54.97
2022-12-04T14:17:34.307Z,54.48
2022-12-04T14:20:07.751Z,54.70
2022-12-04T14:22:37.959Z,54.49
2022-12-04T14:25:24.179Z,54.43
2022-12-04T14:27:53.223Z,54.55
2022-12-04T14:30:35.058Z,54.71
2022-12-04T14:33:10.120Z,53.99
2022-12-04T14:35:46.118Z,53.85
2022-12-04T14:38:20.225Z,53.90
2022-12-04T14:40:58.572Z,53.64
2022-12-04T14:43:30.264Z,53.93
2022-12-04T14:46:09.206Z,53.87
2022-12-04T14:49:00.742Z,53.72
2022-12-04T14:51:37.858Z,53.41
2022-12-04T14:54:19.756Z,53.32
2022-12-04T14:57:01.072Z,53.64
2022-12-04T14:59:49.448Z,53.58
2022-12-04T15:02:26.527Z,53.70
2022-12-04T15:04:54.089Z,53.37
2022-12-04T15:07:24.186Z,51.50
2022-12-04T15:10:14.786Z,50.43
2022-12-04T15:12:53.668Z,49.77
2022-12-04T15:15:27.437Z,49.58
2022-12-04T15:18:11.784Z,48.52
2022-12-04T15:21:00.175Z,48.49
2022-12-04T15:23:37.125Z,48.31
2022-12-04T15:26:25.089Z,48.07
2022-12-04T15:28:57.535Z,48.57
2022-12-04T15:31:35.003Z,48.37
2022-12-04T15:34:07.712Z,48.70
2022-12-04T15:36:49.927Z,48.31
2022-12-04T15:39:20.663Z,48.60
2022-12-04T15:41:47.825Z,49.03
2022-12-04T15:44:33.807Z,48.62
2022-12-04T15:47:02.967Z,48.50
2022-12-04T15:49:32.422Z,48.26
2022-12-04T15:52:05.423Z,47.82
2022-12-04T15:54:32.336Z,47.74
2022-12-04T15:57:06.019Z,47.80
2022-12-04T15:59:34.902Z,47.62
2022-12-04T16:02:21.623Z,47.29
2022-12-04T16:04:58.141Z,48.17
2022-12-04T16:07:28.813Z,48.55
2022-12-04T16:10:03.647Z,48.40
2022-12-04T16:12:32.191Z,48.38
2022-12-04T16:14:58.889Z,48.24
2022-12-04T16:17:33.948Z,48.40
2022-12-04T16:20:04.005Z,48.04
2022-12-04T16:22:31.538Z,48.18
2022-12-04T16:24:58.689Z,48.43
2022-12-04T16:27:25.912Z,48.65
2022-12-04T16:29:53.505Z,48.35
2022-12-04T16:32:30.871Z,47.52
2022-12-04T16:34:58.040Z,47.59
2022-12-04T16:37:25.074Z,47.41
2022-12-04T16:39:51.783Z,47.63
2022-12-04T16:42:22.786Z,48.01
2022-12-04T16:44:49.912Z,47.79
2022-12-04T16:47:17.107Z,47.93
2022-12-04T16:49:45.195Z,48.08
2022-12-04T16:52:12.390Z,48.04
2022-12-04T16:54:39.711Z,47.99
2022-12-04T16:57:09.001Z,48.27
2022-12-04T16:59:36.243Z,48.39
2022-12-04T17:02:06.948Z,48.64
2022-12-04T17:04:33.868Z,48.61
2022-12-04T17:07:00.609Z,48.56
2022-12-04T17:09:27.313Z,48.57
2022-12-04T17:11:54.100Z,48.70
2022-12-04T17:14:20.912Z,48.70
2022-12-04T17:16:47.599Z,49.14
2022-12-04T17:19:14.423Z,49.30
2022-12-04T17:21:41.770Z,48.87
2022-12-04T17:24:08.839Z,48.87
2022-12-04T17:26:35.797Z,48.97
2022-12-04T17:29:02.763Z,48.69
2022-12-04T17:31:30.511Z,48.88
2022-12-04T17:33:57.781Z,47.81
2022-12-04T17:36:26.222Z,48.01
2022-12-04T17:38:57.998Z,47.47
2022-12-04T17:41:25.160Z,47.17
2022-12-04T17:43:51.850Z,47.82
2022-12-04T17:46:24.056Z,48.18
2022-12-04T17:48:50.859Z,48.41
2022-12-04T17:51:20.766Z,48.16
2022-12-04T17:53:47.991Z,47.30
2022-12-04T17:56:17.628Z,47.14
2022-12-04T17:58:45.298Z,46.75
2022-12-04T18:01:14.727Z,46.63
2022-12-04T18:03:43.355Z,46.88
2022-12-04T18:06:17.655Z,47.05
2022-12-04T18:08:49.854Z,46.82
2022-12-04T18:11:20.759Z,47.15
2022-12-04T18:13:49.313Z,47.23
2022-12-04T18:16:16.122Z,47.69
2022-12-04T18:18:46.644Z,47.68
2022-12-04T18:21:14.296Z,48.04
2022-12-04T18:23:45.543Z,48.21
2022-12-04T18:26:18.933Z,49.45
2022-12-04T18:28:46.638Z,48.75
2022-12-04T18:31:14.977Z,48.44
2022-12-04T18:33:42.928Z,48.16
2022-12-04T18:36:16.255Z,48.62
2022-12-04T18:38:43.599Z,48.41
2022-12-04T18:41:12.019Z,48.63
2022-12-04T18:43:43.734Z,48.85
2022-12-04T18:46:13.932Z,48.83
2022-12-04T18:48:43.187Z,49.38
2022-12-04T18:51:22.983Z,49.66
2022-12-04T18:53:51.810Z,50.08
2022-12-04T18:56:19.909Z,50.20
2022-12-04T18:58:47.027Z,50.60
2022-12-04T19:01:16.656Z,50.50
2022-12-04T19:03:43.524Z,50.78
2022-12-04T19:06:10.678Z,50.52
2022-12-04T19:08:42.691Z,50.74
2022-12-04T19:11:13.574Z,50.82
2022-12-04T19:13:41.020Z,51.22
2022-12-04T19:16:13.129Z,51.20
2022-12-04T19:18:40.208Z,51.48
2022-12-04T19:21:07.341Z,51.86
2022-12-04T19:23:34.287Z,51.87
2022-12-04T19:26:01.705Z,52.16
2022-12-04T19:28:29.010Z,52.22
2022-12-04T19:30:56.408Z,52.58
2022-12-04T19:33:24.897Z,52.55
2022-12-04T19:36:05.646Z,53.03
2022-12-04T19:38:33.865Z,53.02
2022-12-04T19:41:12.275Z,53.02
2022-12-04T19:43:41.224Z,52.93
2022-12-04T19:46:09.436Z,53.04
2022-12-04T19:48:37.933Z,52.73
2022-12-04T19:51:16.611Z,52.05
2022-12-04T19:53:44.507Z,52.37
2022-12-04T19:56:14.710Z,51.98
2022-12-04T19:58:42.491Z,52.36
2022-12-04T20:01:12.817Z,52.27
2022-12-04T20:03:39.705Z,52.26
2022-12-04T20:06:09.185Z,52.62
2022-12-04T20:08:36.345Z,52.83
2022-12-04T20:11:08.256Z,53.00
2022-12-04T20:13:36.506Z,53.35
2022-12-04T20:16:05.152Z,53.26
2022-12-04T20:18:32.029Z,53.26
2022-12-04T20:21:01.078Z,53.68
2022-12-04T20:23:28.697Z,53.94
2022-12-04T20:25:55.426Z,53.66
2022-12-04T20:28:23.504Z,53.99
2022-12-04T20:30:50.294Z,54.06
2022-12-04T20:33:17.116Z,53.40
2022-12-04T20:35:43.776Z,53.38
2022-12-04T20:38:10.522Z,52.94
2022-12-04T20:40:37.315Z,52.80
2022-12-04T20:43:04.089Z,52.54
2022-12-04T20:45:31.117Z,53.18
2022-12-04T20:47:57.803Z,53.50
2022-12-04T20:50:24.930Z,53.82
2022-12-04T20:52:51.677Z,53.91
2022-12-04T20:55:18.546Z,54.17
2022-12-04T20:57:45.435Z,54.71
2022-12-04T21:00:13.008Z,54.76
2022-12-04T21:02:39.928Z,54.57
2022-12-04T21:05:07.627Z,54.78
2022-12-04T21:07:34.464Z,54.04
2022-12-04T21:10:01.247Z,54.49
2022-12-04T21:12:46.302Z,55.18
2022-12-04T21:15:31.423Z,55.50
2022-12-04T21:18:00.904Z,55.93
2022-12-04T21:20:27.611Z,56.33
2022-12-04T21:22:54.426Z,56.76
2022-12-04T21:25:21.315Z,56.85
2022-12-04T21:27:48.067Z,57.20
2022-12-04T21:30:14.869Z,57.57
2022-12-04T21:32:41.564Z,57.39
2022-12-04T21:35:08.711Z,57.09
2022-12-04T21:37:35.594Z,56.69
2022-12-04T21:40:03.865Z,56.78
2022-12-04T21:42:30.613Z,56.71
2022-12-04T21:45:01.443Z,56.93
2022-12-04T21:47:29.098Z,57.44
2022-12-04T21:49:56.569Z,57.12
2022-12-04T21:52:24.216Z,57.31
2022-12-04T21:54:54.509Z,57.13
2022-12-04T21:57:22.720Z,56.67
2022-12-04T21:59:51.727Z,58.45
2022-12-04T22:02:19.032Z,58.06
2022-12-04T22:04:45.806Z,58.52
2022-12-04T22:07:12.571Z,58.52
2022-12-04T22:09:40.026Z,58.98
2022-12-04T22:12:26.275Z,58.85
2022-12-04T22:14:53.953Z,58.86
2022-12-04T22:17:20.603Z,58.87
2022-12-04T22:19:47.314Z,59.08
2022-12-04T22:22:13.983Z,59.28
2022-12-04T22:24:41.689Z,59.51
2022-12-04T22:27:14.849Z,59.34
2022-12-04T22:29:50.250Z,58.95
2022-12-04T22:32:18.565Z,59.46
2022-12-04T22:34:47.915Z,59.89
2022-12-04T22:37:15.330Z,60.43
2022-12-04T22:39:42.042Z,60.33
2022-12-04T22:42:08.908Z,60.03
2022-12-04T22:44:35.601Z,60.24
2022-12-04T22:47:02.420Z,59.53
2022-12-04T22:49:29.103Z,59.51
2022-12-04T22:51:55.971Z,59.65
2022-12-04T22:54:22.756Z,59.21
2022-12-04T22:56:49.499Z,59.15
2022-12-04T22:59:16.144Z,58.47
2022-12-04T23:01:42.909Z,58.33
2022-12-04T23:04:10.026Z,58.22
2022-12-04T23:06:37.238Z,58.16
2022-12-04T23:09:11.520Z,57.46
2022-12-04T23:11:39.247Z,57.69
2022-12-04T23:14:07.737Z,57.59
2022-12-04T23:16:36.975Z,57.64
2022-12-04T23:19:05.495Z,57.52
2022-12-04T23:21:32.234Z,57.14
2022-12-04T23:23:58.945Z,57.27
2022-12-04T23:26:35.343Z,57.31
2022-12-04T23:29:02.596Z,57.17
2022-12-04T23:31:30.548Z,57.15
2022-12-04T23:33:57.414Z,57.03
2022-12-04T23:36:24.792Z,57.55
2022-12-04T23:38:51.536Z,58.16
2022-12-04T23:41:22.515Z,57.94
2022-12-04T23:43:51.455Z,57.28
2022-12-04T23:46:20.660Z,57.72
2022-12-04T23:48:48.285Z,58.16
2022-12-04T23:51:17.030Z,58.15
2022-12-04T23:53:44.507Z,58.29
2022-12-04T23:56:20.278Z,58.41
2022-12-04T23:58:49.094Z,58.37
